Time;durP1;ratioP1;P1;durP2;ratioP2;P2;SDS_P1;SDS_P2;PMS_P1;PMS_P2;Temp;Humidity;BMP_temperature;BMP_pressure;BME280_temperature;BME280_humidity;BME280_pressure;Samples;Min_cycle;Max_cycle;Signal;HPM_P1;HPM_P2
2022/04/23 00:01:01;;;;;;;;;;;8.20;99.90;;;7.22;100.00;94375.00;10385908;28;1922;-69
2022/04/23 00:06:04;;;;;;;;;;;8.20;99.90;;;7.14;100.00;94381.00;10414564;28;1812;-67
2022/04/23 00:11:08;;;;;;;;;;;8.10;99.90;;;7.03;100.00;94358.94;10409231;28;1765;-70
2022/04/23 00:16:14;;;;;;;;;;;;;;;7.00;100.00;94362.19;10398701;28;1792;-74
2022/04/23 00:21:18;;;;;;;;;;;8.00;99.90;;;6.91;100.00;94358.53;10397052;28;2013;-71
2022/04/23 00:26:21;;;;;;;;;;;7.90;99.90;;;6.81;100.00;94358.66;10410876;28;1855;-71
2022/04/23 00:31:26;;;;;;;;;;;7.80;99.90;;;6.96;100.00;94359.28;10411290;28;2158;-73
2022/04/23 00:36:29;;;;;;;;;;;7.80;99.90;;;6.88;100.00;94362.59;10403159;28;1984;-71
2022/04/23 00:41:45;;;;;;;;;;;7.80;99.90;;;6.80;100.00;94363.19;10456776;22;1945;-76
2022/04/23 00:46:48;;;;;;;;;;;7.70;99.90;;;6.70;100.00;94363.31;10463108;28;1917;-75
2022/04/23 00:51:51;;;;;;;;;;;7.80;99.90;;;6.74;100.00;94369.66;10437882;28;1887;-76
2022/04/23 00:56:55;;;;;;;;;;;7.50;99.90;;;6.50;100.00;94367.78;10406714;28;1869;-75
2022/04/23 01:02:00;;;;;;;;;;;7.60;99.90;;;6.46;100.00;94361.41;10409652;28;1940;-75
2022/04/23 01:07:06;;;;;;;;;;;;;;;6.44;100.00;94363.56;10411876;28;1942;-74
2022/04/23 01:12:10;;;;;;;;;;;7.70;99.90;;;6.43;100.00;94362.00;10403118;28;2168;-76
2022/04/23 01:17:13;;;;;;;;;;;7.60;99.90;;;6.47;100.00;94365.66;10418071;28;1905;-75
2022/04/23 01:22:16;;;;;;;;;;;7.60;99.90;;;6.35;100.00;94367.91;10407540;28;1983;-75
2022/04/23 01:27:22;;;;;;;;;;;7.50;99.90;;;6.38;100.00;94364.69;10409992;28;1954;-75
2022/04/23 01:32:25;;;;;;;;;;;7.50;99.90;;;6.40;100.00;94372.41;10407746;28;1944;-74
2022/04/23 01:37:28;;;;;;;;;;;7.50;99.90;;;6.47;100.00;94381.69;10420457;28;1952;-73
2022/04/23 01:42:31;;;;;;;;;;;7.60;99.90;;;6.44;100.00;94384.13;10407794;28;1981;-76
2022/04/23 01:47:34;;;;;;;;;;;7.60;99.90;;;6.51;100.00;94371.25;10430186;28;1909;-76
2022/04/23 01:52:37;;;;;;;;;;;7.50;99.90;;;6.53;100.00;94379.75;10402502;28;1952;-73
2022/04/23 01:57:40;;;;;;;;;;;7.70;99.90;;;6.67;100.00;94379.91;10399427;28;1906;-76
2022/04/23 02:02:43;;;;;;;;;;;7.10;99.90;;;6.70;100.00;94376.66;10402793;28;1910;-75
2022/04/23 02:07:47;;;;;;;;;;;7.80;99.90;;;6.77;100.00;94377.13;10406886;28;1982;-76
2022/04/23 02:12:51;;;;;;;;;;;7.70;99.90;;;6.71;100.00;94383.59;10409508;28;1949;-74
2022/04/23 02:17:54;;;;;;;;;;;7.90;99.90;;;6.44;100.00;94376.91;10430955;28;1959;-75
2022/04/23 02:22:57;;;;;;;;;;;7.70;99.90;;;6.44;100.00;94381.47;10437047;28;2595;-75
2022/04/23 02:28:00;;;;;;;;;;;7.70;99.90;;;6.52;100.00;94372.03;10434154;28;1834;-76
2022/04/23 02:33:03;;;;;;;;;;;7.70;99.90;;;6.53;100.00;94368.28;10452061;28;1919;-76
2022/04/23 02:38:07;;;;;;;;;;;7.70;99.90;;;6.59;100.00;94364.50;10431930;28;1727;-77
2022/04/23 02:43:11;;;;;;;;;;;7.70;99.90;;;6.43;100.00;94363.88;10438222;28;1947;-76
2022/04/23 02:48:13;;;;;;;;;;;7.50;99.90;;;6.43;100.00;94348.66;10450162;28;1852;-76
2022/04/23 02:53:17;;;;;;;;;;;7.70;99.90;;;6.33;100.00;94356.72;10437003;28;1804;-77
2022/04/23 02:58:20;;;;;;;;;;;7.60;99.90;;;6.35;100.00;94357.25;10443317;28;2232;-75
2022/04/23 03:03:23;;;;;;;;;;;7.50;99.90;;;6.24;100.00;94366.44;10451926;28;1961;-74
2022/04/23 03:08:26;;;;;;;;;;;7.50;99.90;;;6.23;100.00;94368.31;10429689;28;1760;-77
2022/04/23 03:13:30;;;;;;;;;;;7.40;99.90;;;6.12;100.00;94374.00;10437233;28;1834;-77
2022/04/23 03:18:34;;;;;;;;;;;;;;;6.02;100.00;94363.41;10434618;28;2008;-76
2022/04/23 03:23:37;;;;;;;;;;;7.20;99.90;;;6.09;100.00;94375.34;10462552;22;2423;-74
2022/04/23 03:28:41;;;;;;;;;;;;;;;6.03;100.00;94373.00;10442719;28;1753;-74
2022/04/23 03:33:44;;;;;;;;;;;7.20;99.90;;;5.98;100.00;94379.19;10446978;28;1813;-74
2022/04/23 03:38:47;;;;;;;;;;;7.20;99.90;;;6.03;100.00;94379.13;10434166;28;1923;-74
2022/04/23 03:43:51;;;;;;;;;;;7.10;99.90;;;6.16;100.00;94380.34;10433230;28;1918;-74
2022/04/23 03:48:54;;;;;;;;;;;7.30;99.90;;;6.18;100.00;94378.22;10453112;28;1828;-74
2022/04/23 03:53:57;;;;;;;;;;;7.30;99.90;;;6.09;100.00;94374.56;10445760;28;1955;-74
2022/04/23 03:59:00;;;;;;;;;;;7.30;99.90;;;6.12;100.00;94361.47;10455727;28;2004;-73
2022/04/23 04:04:03;;;;;;;;;;;7.30;99.90;;;6.14;100.00;94355.84;10460884;28;1914;-75
2022/04/23 04:09:07;;;;;;;;;;;7.30;99.90;;;6.15;100.00;94358.22;10458853;28;1801;-75
2022/04/23 04:14:11;;;;;;;;;;;7.30;99.90;;;6.16;100.00;94375.03;10438325;28;1841;-75
2022/04/23 04:19:14;;;;;;;;;;;7.30;99.90;;;6.18;100.00;94367.56;10454635;28;1848;-74
2022/04/23 04:24:18;;;;;;;;;;;7.30;99.90;;;6.25;100.00;94372.56;10436568;28;2029;-74
2022/04/23 04:29:21;;;;;;;;;;;7.40;99.90;;;6.38;100.00;94354.03;10436543;28;1999;-74
2022/04/23 04:34:24;;;;;;;;;;;7.50;99.90;;;6.46;100.00;94342.72;10458260;28;1977;-74
2022/04/23 04:39:28;;;;;;;;;;;7.60;99.90;;;6.50;100.00;94348.31;10450854;28;1805;-75
2022/04/23 04:44:31;;;;;;;;;;;7.70;99.90;;;6.29;100.00;94342.34;10437254;28;1993;-74
2022/04/23 04:49:35;;;;;;;;;;;7.60;99.90;;;6.38;100.00;94342.56;10451865;28;1876;-75
2022/04/23 04:54:38;;;;;;;;;;;7.50;99.90;;;6.30;100.00;94335.97;10435167;28;1893;-74
2022/04/23 04:59:42;;;;;;;;;;;7.50;99.90;;;6.14;100.00;94339.84;10432714;28;1963;-74
2022/04/23 05:04:45;;;;;;;;;;;7.40;99.90;;;6.19;100.00;94339.78;10450754;28;1988;-74
2022/04/23 05:09:49;;;;;;;;;;;7.30;99.90;;;6.22;100.00;94348.00;10454766;28;1843;-73
2022/04/23 05:14:52;;;;;;;;;;;7.40;99.90;;;6.35;100.00;94348.44;10449940;28;2018;-74
2022/04/23 05:19:56;;;;;;;;;;;7.40;99.90;;;6.41;100.00;94366.78;10435665;28;1896;-73
2022/04/23 05:24:59;;;;;;;;;;;7.50;99.90;;;6.48;100.00;94374.47;10436918;28;1930;-74
2022/04/23 05:30:02;;;;;;;;;;;7.60;99.90;;;6.39;100.00;94368.16;10450958;28;2102;-74
2022/04/23 05:35:05;;;;;;;;;;;7.60;99.90;;;6.41;100.00;94363.31;10439669;28;1876;-75
2022/04/23 05:40:08;;;;;;;;;;;7.60;99.90;;;6.50;100.00;94354.44;10436689;28;1839;-74
2022/04/23 05:45:11;;;;;;;;;;;7.60;99.90;;;6.41;100.00;94348.09;10439301;28;1913;-74
2022/04/23 05:50:14;;;;;;;;;;;7.60;99.90;;;6.47;100.00;94344.31;10445077;28;1929;-74
2022/04/23 05:55:18;;;;;;;;;;;7.60;99.90;;;6.54;100.00;94346.66;10447412;28;1855;-74
2022/04/23 06:00:21;;;;;;;;;;;7.60;99.90;;;6.68;100.00;94358.28;10445463;28;2038;-74
2022/04/23 06:05:24;;;;;;;;;;;7.70;99.90;;;6.80;100.00;94347.16;10458764;28;1981;-74
2022/04/23 06:10:28;;;;;;;;;;;7.80;99.90;;;6.77;100.00;94353.88;10437809;28;1847;-74
2022/04/23 06:15:31;;;;;;;;;;;7.90;99.90;;;6.91;100.00;94364.69;10462171;28;1813;-74
2022/04/23 06:20:34;;;;;;;;;;;8.00;99.90;;;6.94;100.00;94364.13;10462975;28;1884;-74
2022/04/23 06:25:37;;;;;;;;;;;8.10;99.90;;;6.94;100.00;94366.00;10445644;28;1982;-74
2022/04/23 06:30:40;;;;;;;;;;;8.00;99.90;;;7.00;100.00;94363.00;10438933;28;2194;-74
2022/04/23 06:35:43;;;;;;;;;;;7.90;99.90;;;6.98;100.00;94354.44;10456091;28;1901;-74
2022/04/23 06:40:47;;;;;;;;;;;8.00;99.90;;;7.17;100.00;94364.38;10449062;28;1983;-76
2022/04/23 06:45:50;;;;;;;;;;;8.20;99.90;;;7.06;100.00;94350.34;10457614;23;3710;-70
2022/04/23 06:50:53;;;;;;;;;;;8.20;99.90;;;6.98;100.00;94349.09;10462519;28;1812;-68
2022/04/23 06:55:56;;;;;;;;;;;8.10;99.90;;;7.06;100.00;94369.03;10424169;28;1876;-70
2022/04/23 07:01:00;;;;;;;;;;;8.00;99.90;;;7.30;100.00;94374.38;10421667;28;1975;-70
2022/04/23 07:06:03;;;;;;;;;;;8.20;99.90;;;7.26;100.00;94366.16;10419765;28;1881;-71
2022/04/23 07:11:06;;;;;;;;;;;8.30;99.90;;;7.33;100.00;94368.47;10403758;28;1933;-70
2022/04/23 07:16:11;;;;;;;;;;;8.30;99.90;;;7.58;100.00;94372.69;10415322;28;1865;-68
2022/04/23 07:21:15;;;;;;;;;;;8.50;99.90;;;7.63;100.00;94355.75;10403574;28;1977;-69
2022/04/23 07:26:18;;;;;;;;;;;8.60;99.90;;;7.46;100.00;94361.63;10409630;28;1835;-70
2022/04/23 07:31:21;;;;;;;;;;;8.60;99.90;;;7.56;100.00;94364.91;10412229;28;1884;-70
2022/04/23 07:41:45;;;;;;;;;;;8.70;99.90;;;7.83;100.00;94352.81;10395752;28;2273;-69
2022/04/23 07:46:48;;;;;;;;;;;8.80;99.90;;;7.82;100.00;94343.16;10413814;28;2034;-70
2022/04/23 07:51:51;;;;;;;;;;;8.80;99.90;;;7.85;100.00;94354.09;10410680;28;2014;-68
2022/04/23 07:56:55;;;;;;;;;;;8.80;99.90;;;8.05;100.00;94346.81;10414247;28;1937;-68
2022/04/23 08:01:59;;;;;;;;;;;8.90;99.90;;;8.24;100.00;94342.22;10415300;28;1922;-69
2022/04/23 08:07:03;;;;;;;;;;;9.10;99.90;;;8.48;100.00;94331.41;10420020;28;1850;-69
2022/04/23 08:12:06;;;;;;;;;;;9.30;99.90;;;8.61;100.00;94319.13;10407531;28;1840;-69
2022/04/23 08:17:09;;;;;;;;;;;9.40;99.90;;;8.84;98.15;94317.34;10403750;28;1811;-69
2022/04/23 08:22:12;;;;;;;;;;;9.70;99.90;;;9.07;96.96;94327.06;10400974;28;2033;-69
2022/04/23 08:27:15;;;;;;;;;;;9.90;99.90;;;9.13;95.40;94317.03;10396931;28;1853;-70
2022/04/23 08:32:18;;;;;;;;;;;10.00;99.90;;;9.21;93.74;94314.44;10416689;28;2090;-69
2022/04/23 08:37:22;;;;;;;;;;;10.10;99.90;;;9.36;93.32;94312.56;10437548;28;1852;-71
2022/04/23 08:42:26;;;;;;;;;;;10.20;99.90;;;9.45;92.38;94321.47;10424497;28;1914;-70
2022/04/23 08:47:29;;;;;;;;;;;10.30;99.90;;;9.92;89.49;94335.44;10437288;28;1900;-70
2022/04/23 08:52:33;;;;;;;;;;;10.60;99.90;;;10.36;87.25;94323.13;10415031;28;1850;-70
2022/04/23 08:57:36;;;;;;;;;;;11.00;99.90;;;10.29;86.99;94318.19;10421743;28;1823;-70
2022/04/23 09:02:41;;;;;;;;;;;11.20;99.90;;;10.91;84.02;94312.03;10412095;28;1914;-70
2022/04/23 09:07:45;;;;;;;;;;;11.50;99.90;;;10.37;85.60;94322.03;10401528;28;1826;-68
2022/04/23 09:12:48;;;;;;;;;;;11.40;99.90;;;10.53;85.49;94315.16;10431423;28;1917;-70
2022/04/23 09:28:32;;;;;;;;;;;11.50;99.90;;;10.69;82.52;94315.56;10416147;28;1866;-69
2022/04/23 09:33:36;;;;;;;;;;;11.70;99.90;;;10.91;81.60;94312.03;10408249;28;2253;-70
2022/04/23 09:38:39;;;;;;;;;;;11.60;99.90;;;11.22;80.09;94318.13;10394894;28;2074;-71
2022/04/23 09:43:43;;;;;;;;;;;12.00;99.90;;;10.54;83.98;94320.22;10422281;28;1890;-70
2022/04/23 09:48:47;;;;;;;;;;;11.80;99.90;;;11.03;82.32;94312.22;10400027;28;1822;-71
2022/04/23 09:53:53;;;;;;;;;;;11.60;99.90;;;11.21;81.27;94305.78;10399145;28;2808;-71
2022/04/23 09:58:57;;;;;;;;;;;12.00;99.90;;;11.25;79.32;94314.81;10406704;28;1759;-70
2022/04/23 10:04:00;;;;;;;;;;;12.20;99.90;;;11.68;77.00;94302.53;10400094;28;1908;-70
2022/04/23 10:09:12;;;;;;;;;;;12.60;99.90;;;11.88;75.23;94307.31;10417968;28;1878;-70
2022/04/23 10:14:19;;;;;;;;;;;12.70;99.90;;;12.03;75.36;94292.59;10395087;28;2151;-68
2022/04/23 10:19:22;;;;;;;;;;;;;;;11.84;75.17;94299.09;10423328;28;1973;-71
2022/04/23 10:24:25;;;;;;;;;;;12.90;99.90;;;12.20;75.01;94292.56;10398773;28;1985;-70
2022/04/23 10:29:31;;;;;;;;;;;12.90;99.90;;;12.38;75.22;94294.09;10403892;28;1771;-70
2022/04/23 10:34:52;;;;;;;;;;;13.00;99.90;;;12.57;73.61;94287.56;10411780;28;1795;-70
2022/04/23 10:39:54;;;;;;;;;;;13.40;99.90;;;11.99;75.90;94294.31;10417548;28;1887;-70
2022/04/23 10:44:59;;;;;;;;;;;13.30;99.90;;;12.21;76.69;94286.03;10399252;28;1922;-70
2022/04/23 10:50:02;;;;;;;;;;;12.90;99.90;;;12.35;75.81;94300.16;10422288;28;1855;-70
2022/04/23 10:55:09;;;;;;;;;;;13.10;99.90;;;12.55;74.16;94303.28;10405861;28;1838;-71
2022/04/23 11:00:12;;;;;;;;;;;13.20;99.90;;;12.41;73.61;94304.25;10431241;28;1875;-70
2022/04/23 11:15:52;;;;;;;;;;;13.40;99.90;;;12.20;74.75;94303.31;10388350;28;1776;-70
2022/04/23 11:20:56;;;;;;;;;;;13.40;99.90;;;12.85;72.19;94304.09;10418825;28;1913;-70
2022/04/23 11:26:00;;;;;;;;;;;13.50;99.90;;;12.73;72.99;94299.41;10406184;28;1983;-69
2022/04/23 11:31:04;;;;;;;;;;;13.60;99.90;;;12.78;72.59;94299.22;10414771;28;1997;-69
2022/04/23 11:36:07;;;;;;;;;;;13.70;99.90;;;12.84;71.50;94300.63;10427612;28;1839;-69
2022/04/23 11:41:10;;;;;;;;;;;13.90;99.90;;;12.72;72.15;94295.09;10437380;28;1576;-70
2022/04/23 11:46:16;;;;;;;;;;;13.80;99.90;;;12.89;70.86;94286.97;10429021;28;1989;-69
2022/04/23 11:51:19;;;;;;;;;;;14.00;99.90;;;12.65;71.11;94282.13;10428538;28;1846;-72
2022/04/23 11:56:22;;;;;;;;;;;13.80;99.90;;;12.34;73.58;94285.09;10428020;28;1937;-68
2022/04/23 12:01:25;;;;;;;;;;;13.40;99.90;;;12.88;71.89;94282.69;10406034;28;1815;-70
2022/04/23 12:06:28;;;;;;;;;;;13.60;99.90;;;12.74;70.82;94284.81;10397093;28;1918;-70
2022/04/23 12:11:31;;;;;;;;;;;13.90;99.90;;;12.85;71.57;94267.16;10397064;28;1787;-69
2022/04/23 12:16:35;;;;;;;;;;;14.00;99.90;;;13.21;70.02;94258.59;10406130;28;1800;-68
2022/04/23 12:21:39;;;;;;;;;;;14.00;99.90;;;12.93;70.60;94243.97;10408831;28;1888;-69
2022/04/23 12:26:42;;;;;;;;;;;;;;;12.41;73.42;94244.97;10408024;28;1918;-71
2022/04/23 12:42:37;;;;;;;;;;;14.10;99.90;;;12.92;70.66;94205.41;10326930;28;1917;-69
2022/04/23 12:47:40;;;;;;;;;;;14.00;99.90;;;12.78;70.77;94204.84;10409960;28;1819;-70
2022/04/23 12:52:44;;;;;;;;;;;14.10;99.90;;;13.08;71.28;94194.06;10419736;22;2381;-71
2022/04/23 12:57:47;;;;;;;;;;;13.90;99.90;;;12.63;71.75;94214.28;10407007;28;1956;-70
2022/04/23 13:02:53;;;;;;;;;;;13.80;99.90;;;13.16;70.58;94244.47;10397094;28;1906;-70
2022/04/23 13:13:18;;;;;;;;;;;14.00;99.90;;;13.40;68.71;94223.06;10392891;28;1923;-72
2022/04/23 13:18:21;;;;;;;;;;;14.30;99.90;;;13.95;66.37;94208.47;10395931;28;1484;-70
2022/04/23 13:23:25;;;;;;;;;;;15.10;99.90;;;14.56;63.34;94200.50;10412487;28;1930;-71
2022/04/23 13:28:28;;;;;;;;;;;;;;;14.05;65.09;94185.63;10388138;28;1769;-71
2022/04/23 13:33:31;;;;;;;;;;;15.30;99.90;;;14.37;64.27;94189.41;10409600;28;1838;-71
2022/04/23 13:38:35;;;;;;;;;;;15.20;99.90;;;14.09;64.95;94185.78;10400556;28;1965;-71
2022/04/23 13:43:38;;;;;;;;;;;15.20;99.90;;;13.47;67.18;94180.13;10394863;28;1906;-72
2022/04/23 13:48:42;;;;;;;;;;;14.80;99.90;;;12.97;69.49;94183.63;10414700;28;2032;-70
2022/04/23 13:53:45;;;;;;;;;;;14.30;99.90;;;13.34;69.34;94185.81;10397326;28;1815;-71
2022/04/23 13:58:47;;;;;;;;;;;14.30;99.90;;;13.69;67.50;94176.31;10401227;28;1802;-70
2022/04/23 14:14:32;;;;;;;;;;;14.90;99.90;;;13.95;65.12;94167.94;10419477;28;1846;-71
2022/04/23 14:19:35;;;;;;;;;;;14.90;99.90;;;14.33;63.34;94164.22;10402200;28;1831;-70
2022/04/23 14:24:38;;;;;;;;;;;15.20;99.90;;;14.42;63.54;94159.47;10403951;28;1981;-71
2022/04/23 14:29:42;;;;;;;;;;;15.30;99.90;;;14.18;65.04;94162.13;10434484;28;1787;-72
2022/04/23 14:34:45;;;;;;;;;;;15.20;99.90;;;13.65;67.63;94151.09;10417329;28;1898;-72
2022/04/23 14:39:48;;;;;;;;;;;15.00;99.90;;;13.95;67.57;94149.03;10426775;28;1874;-71
2022/04/23 14:44:51;;;;;;;;;;;14.80;99.90;;;14.13;66.28;94143.47;10413762;28;1914;-71
2022/04/23 14:49:56;;;;;;;;;;;14.90;99.90;;;13.98;66.69;94142.19;10430737;28;1897;-72
2022/04/23 14:54:59;;;;;;;;;;;15.00;99.90;;;14.03;67.02;94134.66;10408856;28;1779;-72
2022/04/23 15:00:02;;;;;;;;;;;15.00;99.90;;;14.13;66.32;94128.03;10415914;28;1788;-73
2022/04/23 15:05:07;;;;;;;;;;;15.00;99.90;;;13.77;66.99;94134.13;10417545;28;1914;-72
2022/04/23 15:10:10;;;;;;;;;;;15.00;99.90;;;13.84;67.20;94142.47;10412629;28;1808;-71
2022/04/23 15:15:13;;;;;;;;;;;14.90;99.90;;;13.82;67.78;94144.72;10411913;28;1854;-72
2022/04/23 15:20:16;;;;;;;;;;;14.80;99.90;;;13.88;67.08;94159.59;10403484;28;1807;-72
2022/04/23 15:25:19;;;;;;;;;;;14.80;99.90;;;13.58;67.85;94155.44;10411070;28;1999;-71
2022/04/23 15:30:23;;;;;;;;;;;14.70;99.90;;;13.63;67.89;94152.53;10427864;28;1899;-72
2022/04/23 15:35:26;;;;;;;;;;;14.60;99.90;;;13.39;68.75;94145.91;10435131;28;1815;-73
2022/04/23 15:40:29;;;;;;;;;;;14.50;99.90;;;13.16;69.92;94152.72;10411837;28;1799;-72
2022/04/23 15:45:33;;;;;;;;;;;14.40;99.90;;;12.86;71.14;94147.41;10408588;28;1937;-73
2022/04/23 15:50:37;;;;;;;;;;;14.10;99.90;;;12.58;73.24;94144.38;10413520;28;1802;-71
2022/04/23 15:55:40;;;;;;;;;;;13.80;99.90;;;12.53;73.17;94149.94;10403392;28;1811;-75
2022/04/23 16:00:43;;;;;;;;;;;13.70;99.90;;;12.52;74.77;94148.38;10424706;28;1998;-72
2022/04/23 16:05:47;;;;;;;;;;;13.60;99.90;;;12.25;79.38;94117.28;10414844;28;1981;-73
2022/04/23 16:10:50;;;;;;;;;;;13.50;99.90;;;11.87;82.49;94074.97;10405952;28;1824;-72
2022/04/23 16:15:55;;;;;;;;;;;13.10;99.90;;;11.75;85.03;94055.97;10418726;28;1791;-73
2022/04/23 16:20:59;;;;;;;;;;;12.90;99.90;;;11.85;85.06;94060.25;10399237;28;1802;-72
2022/04/23 16:26:03;;;;;;;;;;;12.80;99.90;;;11.95;82.48;94059.88;10416515;28;1919;-72
2022/04/23 16:31:06;;;;;;;;;;;12.90;99.90;;;12.08;80.28;94058.09;10414390;28;1768;-72
2022/04/23 16:46:51;;;;;;;;;;;13.30;99.90;;;12.53;76.33;94082.56;10382347;28;2267;-71
2022/04/23 16:51:56;;;;;;;;;;;13.40;99.90;;;12.50;75.16;94085.13;10413831;28;1989;-71
2022/04/23 16:56:59;;;;;;;;;;;13.50;99.90;;;12.27;77.00;94087.31;10412350;28;2443;-72
2022/04/23 17:02:02;;;;;;;;;;;13.40;99.90;;;12.02;77.65;94099.78;10412825;28;1917;-72
2022/04/23 17:07:06;;;;;;;;;;;13.20;99.90;;;11.87;78.59;94098.41;10415747;28;1912;-72
2022/04/23 17:12:09;;;;;;;;;;;13.00;99.90;;;11.59;80.39;94106.88;10386498;28;1904;-72
2022/04/23 17:17:12;;;;;;;;;;;12.80;99.90;;;11.43;81.71;94092.31;10406565;28;1945;-74
2022/04/23 17:22:16;;;;;;;;;;;12.60;99.90;;;11.42;82.45;94089.97;10400841;28;1910;-71
2022/04/23 17:27:19;;;;;;;;;;;12.50;99.90;;;11.42;82.30;94092.66;10398654;28;1981;-71
2022/04/23 17:32:26;;;;;;;;;;;12.50;99.90;;;11.38;82.20;94089.78;10393981;28;1924;-71
2022/04/23 17:37:29;;;;;;;;;;;12.50;99.90;;;11.32;83.39;94083.81;10393594;28;1889;-72
2022/04/23 17:42:33;;;;;;;;;;;12.40;99.90;;;11.31;83.51;94079.53;10417053;28;1614;-73
2022/04/23 17:47:36;;;;;;;;;;;12.40;99.90;;;11.24;84.07;94071.16;10408238;28;1937;-72
2022/04/23 17:52:39;;;;;;;;;;;12.40;99.90;;;11.12;85.17;94081.75;10405122;28;1862;-72
2022/04/23 17:57:42;;;;;;;;;;;12.30;99.90;;;11.03;85.99;94087.16;10431034;28;1866;-71
2022/04/23 18:08:06;;;;;;;;;;;12.10;99.90;;;10.85;87.53;94095.53;10421412;28;1975;-71
2022/04/23 18:13:11;;;;;;;;;;;12.00;99.90;;;10.72;88.64;94103.44;10407351;28;2087;-71
2022/04/23 18:18:14;;;;;;;;;;;11.90;99.90;;;10.60;89.73;94097.88;10403812;28;1961;-72
2022/04/23 18:23:19;;;;;;;;;;;11.80;99.90;;;10.51;90.78;94099.78;10397086;28;1907;-71
2022/04/23 18:28:22;;;;;;;;;;;11.70;99.90;;;10.43;91.77;94104.03;10411856;28;2016;-72
2022/04/23 18:33:25;;;;;;;;;;;11.60;99.90;;;10.39;92.15;94102.28;10391423;28;2030;-72
2022/04/23 18:38:28;;;;;;;;;;;11.50;99.90;;;10.34;92.75;94097.03;10401898;28;1830;-71
2022/04/23 18:43:51;;;;;;;;;;;11.50;99.90;;;10.25;93.44;94092.44;10403295;28;1985;-71
2022/04/23 18:48:54;;;;;;;;;;;11.40;99.90;;;10.20;94.17;94078.34;10418785;28;1831;-73
2022/04/23 18:53:57;;;;;;;;;;;11.30;99.90;;;10.12;94.84;94074.53;10423569;22;3549;-68
2022/04/23 18:59:01;;;;;;;;;;;11.20;99.90;;;10.12;95.05;94081.81;10423007;28;2116;-69
2022/04/23 19:04:04;;;;;;;;;;;11.20;99.90;;;10.09;95.50;94077.81;10414512;28;2240;-67
2022/04/23 19:09:11;;;;;;;;;;;11.20;99.90;;;10.01;96.31;94082.06;10408444;28;2177;-70
2022/04/23 19:14:13;;;;;;;;;;;11.20;99.90;;;10.00;96.32;94080.50;10407987;28;1855;-69
2022/04/23 19:19:17;;;;;;;;;;;11.10;99.90;;;9.98;96.61;94076.50;10402530;28;2066;-69
2022/04/23 19:29:41;;;;;;;;;;;11.10;99.90;;;9.91;97.54;94070.81;10392651;28;1948;-69
2022/04/23 19:34:44;;;;;;;;;;;11.00;99.90;;;9.85;97.92;94055.94;10411806;28;1944;-67
2022/04/23 19:39:48;;;;;;;;;;;11.00;99.90;;;9.73;98.85;94054.66;10415780;28;1800;-69
2022/04/23 19:44:51;;;;;;;;;;;10.90;99.90;;;9.61;99.86;94045.63;10420546;28;1914;-67
2022/04/23 19:49:54;;;;;;;;;;;10.80;99.90;;;9.51;100.00;94045.88;10405813;28;1831;-68
2022/04/23 19:54:57;;;;;;;;;;;10.70;99.90;;;9.41;100.00;94036.97;10423689;28;1844;-68
2022/04/23 20:00:00;;;;;;;;;;;10.60;99.90;;;9.32;100.00;94038.84;10399824;28;1820;-70
2022/04/23 20:05:03;;;;;;;;;;;10.50;99.90;;;9.31;100.00;94028.44;10414064;28;1922;-72
2022/04/23 20:10:06;;;;;;;;;;;10.40;99.90;;;9.19;100.00;94013.69;10399626;28;1866;-69
2022/04/23 20:15:09;;;;;;;;;;;10.40;99.90;;;9.16;100.00;94011.63;10418507;28;1815;-68
2022/04/23 20:20:13;;;;;;;;;;;10.30;99.90;;;9.09;100.00;94003.22;10423557;28;1811;-68
2022/04/23 20:25:36;;;;;;;;;;;10.20;99.90;;;9.06;100.00;93977.03;10397385;28;2087;-67
2022/04/23 20:30:41;;;;;;;;;;;10.20;99.90;;;8.93;100.00;93994.78;10408917;28;1938;-67
2022/04/23 20:41:05;;;;;;;;;;;10.00;99.90;;;8.91;100.00;93972.09;10423216;28;1831;-68
2022/04/23 20:46:08;;;;;;;;;;;10.10;99.90;;;8.83;100.00;93968.22;10417165;28;1975;-68
2022/04/23 20:51:11;;;;;;;;;;;10.00;99.90;;;8.75;100.00;93971.66;10407460;28;2186;-68
2022/04/23 20:56:14;;;;;;;;;;;9.90;99.90;;;8.61;100.00;93955.66;10403501;28;1792;-68
2022/04/23 21:01:17;;;;;;;;;;;9.80;99.90;;;8.55;100.00;93946.16;10407099;28;1833;-69
2022/04/23 21:06:22;;;;;;;;;;;9.70;99.90;;;8.51;100.00;93939.81;10397948;28;1910;-67
2022/04/23 21:11:25;;;;;;;;;;;9.60;99.90;;;8.42;100.00;93933.63;10415248;28;1967;-67
2022/04/23 21:16:28;;;;;;;;;;;9.60;99.90;;;8.36;100.00;93926.81;10415747;28;1800;-68
2022/04/23 21:21:31;;;;;;;;;;;9.50;99.90;;;8.32;100.00;93934.63;10400245;28;1831;-68
2022/04/23 21:26:34;;;;;;;;;;;9.40;99.90;;;8.29;100.00;93929.88;10409160;28;1983;-67
2022/04/23 21:31:37;;;;;;;;;;;9.50;99.90;;;8.21;100.00;93924.47;10414359;28;1859;-68
2022/04/23 21:36:40;;;;;;;;;;;9.40;99.90;;;8.19;100.00;93927.44;10409313;28;1843;-68
2022/04/23 21:47:05;;;;;;;;;;;9.30;99.90;;;8.26;100.00;93910.94;10405475;28;1918;-68
2022/04/23 21:52:08;;;;;;;;;;;9.40;99.90;;;8.27;100.00;93901.81;10403235;28;2258;-66
2022/04/23 21:57:11;;;;;;;;;;;9.30;99.90;;;8.30;100.00;93895.88;10403156;28;1896;-67
2022/04/23 22:02:15;;;;;;;;;;;9.40;99.90;;;8.34;100.00;93891.50;10414966;28;1829;-67
2022/04/23 22:07:19;;;;;;;;;;;9.40;99.90;;;8.35;100.00;93875.16;10415258;28;2026;-68
2022/04/23 22:12:22;;;;;;;;;;;9.40;99.90;;;8.35;100.00;93871.66;10414171;28;1866;-68
2022/04/23 22:17:26;;;;;;;;;;;9.40;99.90;;;8.34;100.00;93865.53;10414953;28;1847;-68
2022/04/23 22:22:31;;;;;;;;;;;9.40;99.90;;;8.35;100.00;93853.75;10412788;28;1756;-68
2022/04/23 22:27:34;;;;;;;;;;;9.40;99.90;;;8.37;100.00;93869.50;10416878;28;1906;-67
2022/04/23 22:32:40;;;;;;;;;;;9.40;99.90;;;8.35;100.00;93871.66;10419259;28;1903;-66
2022/04/23 22:37:43;;;;;;;;;;;9.50;99.90;;;8.30;100.00;93847.69;10422689;28;1829;-71
2022/04/23 22:42:46;;;;;;;;;;;9.40;99.90;;;8.32;100.00;93840.91;10415211;28;1857;-71
2022/04/23 22:47:48;;;;;;;;;;;9.40;99.90;;;8.27;100.00;93835.72;10404742;28;1953;-71
2022/04/23 22:52:51;;;;;;;;;;;9.40;99.90;;;8.26;100.00;93822.63;10414565;28;1944;-69
2022/04/23 22:57:55;;;;;;;;;;;9.30;99.90;;;8.27;100.00;93810.81;10411609;28;1875;-71
2022/04/23 23:02:58;;;;;;;;;;;9.40;99.90;;;8.25;100.00;93796.97;10399636;28;1813;-69
2022/04/23 23:08:01;;;;;;;;;;;9.40;99.90;;;8.16;100.00;93790.78;10415551;28;1910;-70
2022/04/23 23:13:05;;;;;;;;;;;9.30;99.90;;;8.04;100.00;93789.44;10396310;28;1856;-71
2022/04/23 23:18:08;;;;;;;;;;;9.20;99.90;;;7.98;100.00;93766.59;10410582;28;1976;-71
2022/04/23 23:23:11;;;;;;;;;;;9.20;99.90;;;7.91;100.00;93776.94;10406145;28;1889;-70
2022/04/23 23:28:13;;;;;;;;;;;9.10;99.90;;;7.82;100.00;93778.75;10412631;28;2287;-69
2022/04/23 23:33:16;;;;;;;;;;;9.10;99.90;;;7.75;100.00;93767.69;10419215;28;1820;-70
2022/04/23 23:38:19;;;;;;;;;;;9.00;99.90;;;7.73;100.00;93743.13;10416940;28;1939;-70
2022/04/23 23:43:22;;;;;;;;;;;9.10;99.90;;;7.70;100.00;93757.09;10412314;28;1879;-69
2022/04/23 23:48:25;;;;;;;;;;;8.90;99.90;;;7.63;100.00;93738.81;10390909;28;1983;-70
2022/04/23 23:53:29;;;;;;;;;;;8.70;99.90;;;7.59;100.00;93727.94;10411881;28;1843;-69
2022/04/23 23:58:32;;;;;;;;;;;8.70;99.90;;;7.51;100.00;93715.31;10400997;28;1833;-69
